sensor_id;sensor_type;location;lat;lon;timestamp;temperature;humidity
40636;DHT22;26642;55.766;37.828;2023-02-03T00:01:08;13.30;60.80
40636;DHT22;26642;55.766;37.828;2023-02-03T00:03:34;13.30;60.70
40636;DHT22;26642;55.766;37.828;2023-02-03T00:06:01;13.30;60.70
40636;DHT22;26642;55.766;37.828;2023-02-03T00:08:29;13.30;60.70
40636;DHT22;26642;55.766;37.828;2023-02-03T00:10:55;13.30;60.60
40636;DHT22;26642;55.766;37.828;2023-02-03T00:13:21;13.30;60.60
40636;DHT22;26642;55.766;37.828;2023-02-03T00:15:47;13.30;60.50
40636;DHT22;26642;55.766;37.828;2023-02-03T00:18:13;13.30;60.50
40636;DHT22;26642;55.766;37.828;2023-02-03T00:20:39;13.30;60.50
40636;DHT22;26642;55.766;37.828;2023-02-03T00:23:10;13.30;60.60
40636;DHT22;26642;55.766;37.828;2023-02-03T00:25:37;13.30;60.90
40636;DHT22;26642;55.766;37.828;2023-02-03T00:28:04;13.30;61.00
40636;DHT22;26642;55.766;37.828;2023-02-03T00:30:30;13.30;60.90
40636;DHT22;26642;55.766;37.828;2023-02-03T00:32:58;13.30;60.80
40636;DHT22;26642;55.766;37.828;2023-02-03T00:35:24;13.30;60.80
40636;DHT22;26642;55.766;37.828;2023-02-03T00:37:55;13.30;60.80
40636;DHT22;26642;55.766;37.828;2023-02-03T00:40:23;13.30;60.60
40636;DHT22;26642;55.766;37.828;2023-02-03T00:42:50;13.30;60.70
40636;DHT22;26642;55.766;37.828;2023-02-03T00:45:16;13.30;60.70
40636;DHT22;26642;55.766;37.828;2023-02-03T00:47:42;13.30;60.70
40636;DHT22;26642;55.766;37.828;2023-02-03T00:50:09;13.30;60.70
40636;DHT22;26642;55.766;37.828;2023-02-03T00:52:35;13.30;60.60
40636;DHT22;26642;55.766;37.828;2023-02-03T00:55:02;13.30;60.70
40636;DHT22;26642;55.766;37.828;2023-02-03T00:57:28;13.30;60.60
40636;DHT22;26642;55.766;37.828;2023-02-03T00:59:54;13.30;60.70
40636;DHT22;26642;55.766;37.828;2023-02-03T01:02:21;13.30;60.60
40636;DHT22;26642;55.766;37.828;2023-02-03T01:04:48;13.30;60.60
40636;DHT22;26642;55.766;37.828;2023-02-03T01:07:14;13.30;60.60
40636;DHT22;26642;55.766;37.828;2023-02-03T01:09:40;13.30;60.50
40636;DHT22;26642;55.766;37.828;2023-02-03T01:12:06;13.30;60.50
40636;DHT22;26642;55.766;37.828;2023-02-03T01:14:33;13.30;60.50
40636;DHT22;26642;55.766;37.828;2023-02-03T01:16:59;13.30;60.50
40636;DHT22;26642;55.766;37.828;2023-02-03T01:19:25;13.30;60.50
40636;DHT22;26642;55.766;37.828;2023-02-03T01:21:51;13.30;60.40
40636;DHT22;26642;55.766;37.828;2023-02-03T01:24:17;13.30;60.40
40636;DHT22;26642;55.766;37.828;2023-02-03T01:26:43;13.30;60.50
40636;DHT22;26642;55.766;37.828;2023-02-03T01:29:09;13.20;60.50
40636;DHT22;26642;55.766;37.828;2023-02-03T01:31:40;13.30;60.70
40636;DHT22;26642;55.766;37.828;2023-02-03T01:34:10;13.30;60.90
40636;DHT22;26642;55.766;37.828;2023-02-03T01:36:37;13.30;61.00
40636;DHT22;26642;55.766;37.828;2023-02-03T01:39:04;13.20;60.90
40636;DHT22;26642;55.766;37.828;2023-02-03T01:41:36;13.30;61.00
40636;DHT22;26642;55.766;37.828;2023-02-03T01:46:57;13.20;61.00
40636;DHT22;26642;55.766;37.828;2023-02-03T01:49:34;13.20;61.00
40636;DHT22;26642;55.766;37.828;2023-02-03T01:52:01;13.30;61.00
40636;DHT22;26642;55.766;37.828;2023-02-03T01:54:31;13.20;60.80
40636;DHT22;26642;55.766;37.828;2023-02-03T01:57:02;13.20;60.80
40636;DHT22;26642;55.766;37.828;2023-02-03T01:59:30;13.20;60.80
40636;DHT22;26642;55.766;37.828;2023-02-03T02:01:57;13.20;60.80
40636;DHT22;26642;55.766;37.828;2023-02-03T02:04:28;13.20;60.80
40636;DHT22;26642;55.766;37.828;2023-02-03T02:06:57;13.20;60.80
40636;DHT22;26642;55.766;37.828;2023-02-03T02:09:25;13.20;61.00
40636;DHT22;26642;55.766;37.828;2023-02-03T02:11:51;13.20;60.80
40636;DHT22;26642;55.766;37.828;2023-02-03T02:14:17;13.20;60.80
40636;DHT22;26642;55.766;37.828;2023-02-03T02:16:53;13.20;60.90
40636;DHT22;26642;55.766;37.828;2023-02-03T02:31:03;13.20;60.80
40636;DHT22;26642;55.766;37.828;2023-02-03T02:41:59;13.20;61.10
40636;DHT22;26642;55.766;37.828;2023-02-03T02:44:33;13.20;61.10
40636;DHT22;26642;55.766;37.828;2023-02-03T02:47:20;13.20;61.10
40636;DHT22;26642;55.766;37.828;2023-02-03T02:50:14;13.20;61.20
40636;DHT22;26642;55.766;37.828;2023-02-03T02:52:43;13.20;61.20
40636;DHT22;26642;55.766;37.828;2023-02-03T02:55:17;13.20;61.00
40636;DHT22;26642;55.766;37.828;2023-02-03T02:57:53;13.20;61.00
40636;DHT22;26642;55.766;37.828;2023-02-03T03:00:21;13.20;61.00
40636;DHT22;26642;55.766;37.828;2023-02-03T03:02:47;13.20;60.90
40636;DHT22;26642;55.766;37.828;2023-02-03T03:05:14;13.20;60.80
40636;DHT22;26642;55.766;37.828;2023-02-03T03:07:58;13.20;60.80
40636;DHT22;26642;55.766;37.828;2023-02-03T03:10:30;13.20;60.90
40636;DHT22;26642;55.766;37.828;2023-02-03T03:13:02;13.20;60.80
40636;DHT22;26642;55.766;37.828;2023-02-03T03:15:31;13.20;60.90
40636;DHT22;26642;55.766;37.828;2023-02-03T03:20:31;13.20;60.90
40636;DHT22;26642;55.766;37.828;2023-02-03T03:23:10;13.20;60.90
40636;DHT22;26642;55.766;37.828;2023-02-03T03:25:43;13.20;60.80
40636;DHT22;26642;55.766;37.828;2023-02-03T03:28:16;13.20;60.90
40636;DHT22;26642;55.766;37.828;2023-02-03T03:30:45;13.20;61.00
40636;DHT22;26642;55.766;37.828;2023-02-03T03:33:12;13.20;61.00
40636;DHT22;26642;55.766;37.828;2023-02-03T03:35:46;13.20;60.80
40636;DHT22;26642;55.766;37.828;2023-02-03T03:38:22;13.20;60.90
40636;DHT22;26642;55.766;37.828;2023-02-03T03:40:56;13.20;61.00
40636;DHT22;26642;55.766;37.828;2023-02-03T03:43:28;13.20;60.90
40636;DHT22;26642;55.766;37.828;2023-02-03T03:46:03;13.20;61.00
40636;DHT22;26642;55.766;37.828;2023-02-03T03:51:31;13.20;61.00
40636;DHT22;26642;55.766;37.828;2023-02-03T03:54:06;13.20;61.20
40636;DHT22;26642;55.766;37.828;2023-02-03T03:56:48;13.20;61.10
40636;DHT22;26642;55.766;37.828;2023-02-03T03:59:19;13.20;61.10
40636;DHT22;26642;55.766;37.828;2023-02-03T04:01:48;13.20;61.10
40636;DHT22;26642;55.766;37.828;2023-02-03T04:04:15;13.20;61.00
40636;DHT22;26642;55.766;37.828;2023-02-03T04:06:42;13.20;61.00
40636;DHT22;26642;55.766;37.828;2023-02-03T04:09:08;13.20;61.10
40636;DHT22;26642;55.766;37.828;2023-02-03T04:11:34;13.20;61.20
40636;DHT22;26642;55.766;37.828;2023-02-03T04:14:18;13.20;61.10
40636;DHT22;26642;55.766;37.828;2023-02-03T04:16:44;13.20;61.10
40636;DHT22;26642;55.766;37.828;2023-02-03T04:19:10;13.20;61.00
40636;DHT22;26642;55.766;37.828;2023-02-03T04:21:36;13.20;61.00
40636;DHT22;26642;55.766;37.828;2023-02-03T04:24:02;13.20;61.00
40636;DHT22;26642;55.766;37.828;2023-02-03T04:26:28;13.20;61.10
40636;DHT22;26642;55.766;37.828;2023-02-03T04:28:54;13.20;61.00
40636;DHT22;26642;55.766;37.828;2023-02-03T04:31:20;13.20;61.00
40636;DHT22;26642;55.766;37.828;2023-02-03T04:33:46;13.20;61.00
40636;DHT22;26642;55.766;37.828;2023-02-03T04:36:12;13.20;61.00
40636;DHT22;26642;55.766;37.828;2023-02-03T04:38:39;13.20;61.00
40636;DHT22;26642;55.766;37.828;2023-02-03T04:41:05;13.20;61.00
40636;DHT22;26642;55.766;37.828;2023-02-03T04:43:31;13.20;61.10
40636;DHT22;26642;55.766;37.828;2023-02-03T04:46:00;13.20;61.20
40636;DHT22;26642;55.766;37.828;2023-02-03T04:48:27;13.20;61.30
40636;DHT22;26642;55.766;37.828;2023-02-03T04:50:53;13.20;61.50
40636;DHT22;26642;55.766;37.828;2023-02-03T04:53:19;13.20;61.70
40636;DHT22;26642;55.766;37.828;2023-02-03T04:55:48;13.20;62.00
40636;DHT22;26642;55.766;37.828;2023-02-03T04:58:14;13.20;62.40
40636;DHT22;26642;55.766;37.828;2023-02-03T05:00:40;13.20;62.80
40636;DHT22;26642;55.766;37.828;2023-02-03T05:03:06;13.20;62.90
40636;DHT22;26642;55.766;37.828;2023-02-03T05:05:32;13.20;62.90
40636;DHT22;26642;55.766;37.828;2023-02-03T05:07:58;13.20;63.10
40636;DHT22;26642;55.766;37.828;2023-02-03T05:10:24;13.20;63.20
40636;DHT22;26642;55.766;37.828;2023-02-03T05:12:50;13.20;63.30
40636;DHT22;26642;55.766;37.828;2023-02-03T05:15:16;13.20;63.40
40636;DHT22;26642;55.766;37.828;2023-02-03T05:17:42;13.20;63.40
40636;DHT22;26642;55.766;37.828;2023-02-03T05:20:08;13.20;63.30
40636;DHT22;26642;55.766;37.828;2023-02-03T05:22:34;13.20;63.30
40636;DHT22;26642;55.766;37.828;2023-02-03T05:25:01;13.20;63.20
40636;DHT22;26642;55.766;37.828;2023-02-03T05:27:27;13.20;63.20
40636;DHT22;26642;55.766;37.828;2023-02-03T05:29:53;13.30;63.20
40636;DHT22;26642;55.766;37.828;2023-02-03T05:32:19;13.20;63.10
40636;DHT22;26642;55.766;37.828;2023-02-03T05:34:45;13.30;63.20
40636;DHT22;26642;55.766;37.828;2023-02-03T05:37:11;13.20;63.00
40636;DHT22;26642;55.766;37.828;2023-02-03T05:39:37;13.20;62.90
40636;DHT22;26642;55.766;37.828;2023-02-03T05:42:03;13.20;62.90
40636;DHT22;26642;55.766;37.828;2023-02-03T05:44:29;13.20;62.70
40636;DHT22;26642;55.766;37.828;2023-02-03T05:46:58;13.20;62.70
40636;DHT22;26642;55.766;37.828;2023-02-03T05:49:24;13.20;62.70
40636;DHT22;26642;55.766;37.828;2023-02-03T05:51:53;13.30;62.70
40636;DHT22;26642;55.766;37.828;2023-02-03T05:54:19;13.30;62.70
40636;DHT22;26642;55.766;37.828;2023-02-03T05:56:45;13.20;62.50
40636;DHT22;26642;55.766;37.828;2023-02-03T05:59:11;13.30;62.50
40636;DHT22;26642;55.766;37.828;2023-02-03T06:01:37;13.30;62.70
40636;DHT22;26642;55.766;37.828;2023-02-03T06:04:03;13.20;59.50
40636;DHT22;26642;55.766;37.828;2023-02-03T06:06:30;13.10;56.20
40636;DHT22;26642;55.766;37.828;2023-02-03T06:09:00;13.00;55.20
40636;DHT22;26642;55.766;37.828;2023-02-03T06:11:27;12.90;55.40
40636;DHT22;26642;55.766;37.828;2023-02-03T06:13:54;12.80;55.30
40636;DHT22;26642;55.766;37.828;2023-02-03T06:16:21;12.70;55.30
40636;DHT22;26642;55.766;37.828;2023-02-03T06:18:50;12.50;55.20
40636;DHT22;26642;55.766;37.828;2023-02-03T06:21:17;12.50;55.30
40636;DHT22;26642;55.766;37.828;2023-02-03T06:23:43;12.30;55.40
40636;DHT22;26642;55.766;37.828;2023-02-03T06:26:09;12.30;55.60
40636;DHT22;26642;55.766;37.828;2023-02-03T06:28:35;12.10;55.70
40636;DHT22;26642;55.766;37.828;2023-02-03T06:31:03;12.10;56.10
40636;DHT22;26642;55.766;37.828;2023-02-03T06:33:30;12.00;56.00
40636;DHT22;26642;55.766;37.828;2023-02-03T06:35:56;11.90;56.10
40636;DHT22;26642;55.766;37.828;2023-02-03T06:38:22;11.80;56.20
40636;DHT22;26642;55.766;37.828;2023-02-03T06:40:48;11.70;56.30
40636;DHT22;26642;55.766;37.828;2023-02-03T06:43:15;11.70;57.10
40636;DHT22;26642;55.766;37.828;2023-02-03T06:45:44;11.60;56.70
40636;DHT22;26642;55.766;37.828;2023-02-03T06:48:10;11.50;56.60
40636;DHT22;26642;55.766;37.828;2023-02-03T06:50:36;11.50;56.90
40636;DHT22;26642;55.766;37.828;2023-02-03T06:53:02;11.40;56.90
40636;DHT22;26642;55.766;37.828;2023-02-03T06:55:28;11.30;57.10
40636;DHT22;26642;55.766;37.828;2023-02-03T06:57:54;11.30;57.20
40636;DHT22;26642;55.766;37.828;2023-02-03T07:00:20;11.20;57.10
40636;DHT22;26642;55.766;37.828;2023-02-03T07:02:52;11.20;57.30
40636;DHT22;26642;55.766;37.828;2023-02-03T07:05:19;11.20;57.30
40636;DHT22;26642;55.766;37.828;2023-02-03T07:07:45;11.10;57.50
40636;DHT22;26642;55.766;37.828;2023-02-03T07:10:11;11.10;57.40
40636;DHT22;26642;55.766;37.828;2023-02-03T07:12:36;11.00;57.70
40636;DHT22;26642;55.766;37.828;2023-02-03T07:15:03;11.00;57.80
40636;DHT22;26642;55.766;37.828;2023-02-03T07:17:30;10.90;57.90
40636;DHT22;26642;55.766;37.828;2023-02-03T07:19:56;10.90;58.90
40636;DHT22;26642;55.766;37.828;2023-02-03T07:22:22;10.90;60.00
40636;DHT22;26642;55.766;37.828;2023-02-03T07:24:47;11.00;60.70
40636;DHT22;26642;55.766;37.828;2023-02-03T07:27:14;11.00;61.20
40636;DHT22;26642;55.766;37.828;2023-02-03T07:29:40;11.00;61.60
40636;DHT22;26642;55.766;37.828;2023-02-03T07:32:06;11.10;62.00
40636;DHT22;26642;55.766;37.828;2023-02-03T07:34:31;11.10;62.20
40636;DHT22;26642;55.766;37.828;2023-02-03T07:36:57;11.10;62.50
40636;DHT22;26642;55.766;37.828;2023-02-03T07:39:23;11.20;62.70
40636;DHT22;26642;55.766;37.828;2023-02-03T07:41:49;11.20;62.90
40636;DHT22;26642;55.766;37.828;2023-02-03T07:44:15;11.30;63.00
40636;DHT22;26642;55.766;37.828;2023-02-03T07:46:41;11.30;63.20
40636;DHT22;26642;55.766;37.828;2023-02-03T07:49:12;11.40;63.30
40636;DHT22;26642;55.766;37.828;2023-02-03T07:51:40;11.40;63.30
40636;DHT22;26642;55.766;37.828;2023-02-03T07:54:06;11.50;63.30
40636;DHT22;26642;55.766;37.828;2023-02-03T07:56:32;11.50;63.20
40636;DHT22;26642;55.766;37.828;2023-02-03T07:58:59;11.60;63.40
40636;DHT22;26642;55.766;37.828;2023-02-03T08:01:25;11.60;63.40
40636;DHT22;26642;55.766;37.828;2023-02-03T08:03:51;11.70;63.50
40636;DHT22;26642;55.766;37.828;2023-02-03T08:06:17;11.70;63.50
40636;DHT22;26642;55.766;37.828;2023-02-03T08:08:43;11.70;63.50
40636;DHT22;26642;55.766;37.828;2023-02-03T08:11:09;11.80;63.50
40636;DHT22;26642;55.766;37.828;2023-02-03T08:13:36;11.80;63.50
40636;DHT22;26642;55.766;37.828;2023-02-03T08:16:02;11.80;63.50
40636;DHT22;26642;55.766;37.828;2023-02-03T08:18:28;11.90;63.60
40636;DHT22;26642;55.766;37.828;2023-02-03T08:20:54;11.90;63.50
40636;DHT22;26642;55.766;37.828;2023-02-03T08:23:20;12.00;63.60
40636;DHT22;26642;55.766;37.828;2023-02-03T08:25:50;12.00;63.40
40636;DHT22;26642;55.766;37.828;2023-02-03T08:28:17;12.00;63.30
40636;DHT22;26642;55.766;37.828;2023-02-03T08:30:43;12.10;63.30
40636;DHT22;26642;55.766;37.828;2023-02-03T08:33:09;12.10;63.20
40636;DHT22;26642;55.766;37.828;2023-02-03T08:35:34;12.20;63.20
40636;DHT22;26642;55.766;37.828;2023-02-03T08:38:01;12.20;63.20
40636;DHT22;26642;55.766;37.828;2023-02-03T08:40:27;12.20;63.20
40636;DHT22;26642;55.766;37.828;2023-02-03T08:42:53;12.20;63.20
40636;DHT22;26642;55.766;37.828;2023-02-03T08:45:19;12.30;63.30
40636;DHT22;26642;55.766;37.828;2023-02-03T08:47:45;12.30;63.30
40636;DHT22;26642;55.766;37.828;2023-02-03T08:50:11;12.30;63.20
40636;DHT22;26642;55.766;37.828;2023-02-03T08:52:38;12.30;63.20
40636;DHT22;26642;55.766;37.828;2023-02-03T08:55:05;12.40;63.20
40636;DHT22;26642;55.766;37.828;2023-02-03T08:57:35;12.40;63.20
40636;DHT22;26642;55.766;37.828;2023-02-03T09:00:01;12.40;63.20
40636;DHT22;26642;55.766;37.828;2023-02-03T09:02:28;12.50;63.20
40636;DHT22;26642;55.766;37.828;2023-02-03T09:04:54;12.40;63.10
40636;DHT22;26642;55.766;37.828;2023-02-03T09:07:20;12.50;63.00
40636;DHT22;26642;55.766;37.828;2023-02-03T09:09:46;12.50;63.10
40636;DHT22;26642;55.766;37.828;2023-02-03T09:12:12;12.50;63.00
40636;DHT22;26642;55.766;37.828;2023-02-03T09:14:38;12.60;63.10
40636;DHT22;26642;55.766;37.828;2023-02-03T09:17:05;12.60;63.10
40636;DHT22;26642;55.766;37.828;2023-02-03T09:19:32;12.60;63.10
40636;DHT22;26642;55.766;37.828;2023-02-03T09:21:59;12.60;63.10
40636;DHT22;26642;55.766;37.828;2023-02-03T09:24:25;12.60;63.10
40636;DHT22;26642;55.766;37.828;2023-02-03T09:26:51;12.60;63.00
40636;DHT22;26642;55.766;37.828;2023-02-03T09:29:18;12.60;63.00
40636;DHT22;26642;55.766;37.828;2023-02-03T09:31:44;12.70;63.00
40636;DHT22;26642;55.766;37.828;2023-02-03T09:34:11;12.70;63.00
40636;DHT22;26642;55.766;37.828;2023-02-03T09:36:37;12.70;63.00
40636;DHT22;26642;55.766;37.828;2023-02-03T09:39:03;12.70;62.90
40636;DHT22;26642;55.766;37.828;2023-02-03T09:41:50;12.70;62.90
40636;DHT22;26642;55.766;37.828;2023-02-03T09:46:53;12.80;62.70
40636;DHT22;26642;55.766;37.828;2023-02-03T09:49:37;12.80;62.70
40636;DHT22;26642;55.766;37.828;2023-02-03T09:52:13;12.80;62.80
40636;DHT22;26642;55.766;37.828;2023-02-03T09:54:49;12.80;62.80
40636;DHT22;26642;55.766;37.828;2023-02-03T09:57:21;12.90;62.90
40636;DHT22;26642;55.766;37.828;2023-02-03T09:59:48;12.80;62.80
40636;DHT22;26642;55.766;37.828;2023-02-03T10:02:55;12.90;62.80
40636;DHT22;26642;55.766;37.828;2023-02-03T10:19:00;13.00;62.80
40636;DHT22;26642;55.766;37.828;2023-02-03T10:23:57;13.00;62.80
40636;DHT22;26642;55.766;37.828;2023-02-03T10:26:26;13.00;62.80
40636;DHT22;26642;55.766;37.828;2023-02-03T10:29:00;13.00;62.80
40636;DHT22;26642;55.766;37.828;2023-02-03T10:31:32;13.00;62.70
40636;DHT22;26642;55.766;37.828;2023-02-03T10:34:11;13.00;62.60
40636;DHT22;26642;55.766;37.828;2023-02-03T10:39:28;13.10;62.50
40636;DHT22;26642;55.766;37.828;2023-02-03T10:41:55;13.10;62.50
40636;DHT22;26642;55.766;37.828;2023-02-03T10:44:27;13.10;63.10
40636;DHT22;26642;55.766;37.828;2023-02-03T10:46:56;13.10;62.60
40636;DHT22;26642;55.766;37.828;2023-02-03T10:49:25;13.10;62.60
40636;DHT22;26642;55.766;37.828;2023-02-03T10:51:55;13.10;62.70
40636;DHT22;26642;55.766;37.828;2023-02-03T10:54:31;13.10;62.70
40636;DHT22;26642;55.766;37.828;2023-02-03T10:57:03;13.10;62.90
40636;DHT22;26642;55.766;37.828;2023-02-03T10:59:34;13.20;62.90
40636;DHT22;26642;55.766;37.828;2023-02-03T11:02:07;13.20;63.10
40636;DHT22;26642;55.766;37.828;2023-02-03T11:04:35;13.20;63.30
40636;DHT22;26642;55.766;37.828;2023-02-03T11:07:04;13.20;63.40
40636;DHT22;26642;55.766;37.828;2023-02-03T11:12:12;13.20;63.70
40636;DHT22;26642;55.766;37.828;2023-02-03T11:14:41;13.20;63.80
40636;DHT22;26642;55.766;37.828;2023-02-03T11:17:17;13.20;63.90
40636;DHT22;26642;55.766;37.828;2023-02-03T11:19:49;13.20;63.90
40636;DHT22;26642;55.766;37.828;2023-02-03T11:22:36;13.30;64.00
40636;DHT22;26642;55.766;37.828;2023-02-03T11:25:04;13.20;63.80
40636;DHT22;26642;55.766;37.828;2023-02-03T11:27:41;13.30;64.10
40636;DHT22;26642;55.766;37.828;2023-02-03T11:30:23;13.30;64.90
40636;DHT22;26642;55.766;37.828;2023-02-03T11:32:50;13.30;64.30
40636;DHT22;26642;55.766;37.828;2023-02-03T11:35:20;13.30;64.40
40636;DHT22;26642;55.766;37.828;2023-02-03T11:37:49;13.30;64.40
40636;DHT22;26642;55.766;37.828;2023-02-03T11:42:45;13.30;64.40
40636;DHT22;26642;55.766;37.828;2023-02-03T11:45:31;13.30;64.40
40636;DHT22;26642;55.766;37.828;2023-02-03T11:48:31;13.30;64.40
40636;DHT22;26642;55.766;37.828;2023-02-03T11:51:07;13.40;64.50
40636;DHT22;26642;55.766;37.828;2023-02-03T11:54:13;13.40;64.40
40636;DHT22;26642;55.766;37.828;2023-02-03T12:06:00;13.40;64.70
40636;DHT22;26642;55.766;37.828;2023-02-03T12:11:44;13.40;64.70
40636;DHT22;26642;55.766;37.828;2023-02-03T12:15:02;13.50;64.70
40636;DHT22;26642;55.766;37.828;2023-02-03T12:17:27;13.50;64.60
40636;DHT22;26642;55.766;37.828;2023-02-03T12:31:37;13.50;64.40
40636;DHT22;26642;55.766;37.828;2023-02-03T12:34:29;13.50;64.30
40636;DHT22;26642;55.766;37.828;2023-02-03T12:37:05;13.50;64.30
40636;DHT22;26642;55.766;37.828;2023-02-03T12:39:41;13.60;64.40
40636;DHT22;26642;55.766;37.828;2023-02-03T12:45:16;13.60;64.30
40636;DHT22;26642;55.766;37.828;2023-02-03T12:52:50;13.60;64.50
40636;DHT22;26642;55.766;37.828;2023-02-03T12:55:33;13.60;64.80
40636;DHT22;26642;55.766;37.828;2023-02-03T13:01:11;13.70;65.70
40636;DHT22;26642;55.766;37.828;2023-02-03T13:03:51;13.70;65.30
40636;DHT22;26642;55.766;37.828;2023-02-03T13:06:40;13.70;65.10
40636;DHT22;26642;55.766;37.828;2023-02-03T13:15:19;13.80;64.80
40636;DHT22;26642;55.766;37.828;2023-02-03T13:20:25;13.80;64.60
40636;DHT22;26642;55.766;37.828;2023-02-03T13:22:51;13.80;64.60
40636;DHT22;26642;55.766;37.828;2023-02-03T13:36:49;13.90;64.50
40636;DHT22;26642;55.766;37.828;2023-02-03T13:42:32;13.90;64.50
40636;DHT22;26642;55.766;37.828;2023-02-03T13:45:32;13.90;65.00
40636;DHT22;26642;55.766;37.828;2023-02-03T13:48:19;13.90;65.40
40636;DHT22;26642;55.766;37.828;2023-02-03T13:50:50;13.90;65.80
40636;DHT22;26642;55.766;37.828;2023-02-03T13:53:23;13.90;66.20
40636;DHT22;26642;55.766;37.828;2023-02-03T13:56:14;13.90;66.60
40636;DHT22;26642;55.766;37.828;2023-02-03T14:01:40;13.90;67.00
40636;DHT22;26642;55.766;37.828;2023-02-03T14:04:08;13.90;67.10
40636;DHT22;26642;55.766;37.828;2023-02-03T14:06:57;13.90;67.20
40636;DHT22;26642;55.766;37.828;2023-02-03T14:14:42;14.00;67.10
40636;DHT22;26642;55.766;37.828;2023-02-03T14:23:04;14.00;66.60
40636;DHT22;26642;55.766;37.828;2023-02-03T14:25:37;14.00;66.30
40636;DHT22;26642;55.766;37.828;2023-02-03T14:28:08;14.00;66.10
40636;DHT22;26642;55.766;37.828;2023-02-03T14:31:05;14.00;65.90
40636;DHT22;26642;55.766;37.828;2023-02-03T14:45:27;14.00;65.30
40636;DHT22;26642;55.766;37.828;2023-02-03T14:48:20;14.00;65.30
40636;DHT22;26642;55.766;37.828;2023-02-03T14:51:20;14.00;65.30
40636;DHT22;26642;55.766;37.828;2023-02-03T14:59:20;14.00;65.30
40636;DHT22;26642;55.766;37.828;2023-02-03T15:06:46;14.00;65.30
40636;DHT22;26642;55.766;37.828;2023-02-03T15:12:24;14.00;65.20
40636;DHT22;26642;55.766;37.828;2023-02-03T15:14:51;14.00;65.20
40636;DHT22;26642;55.766;37.828;2023-02-03T15:17:24;14.00;65.20
40636;DHT22;26642;55.766;37.828;2023-02-03T15:19:51;14.00;65.20
40636;DHT22;26642;55.766;37.828;2023-02-03T15:22:23;14.00;65.30
40636;DHT22;26642;55.766;37.828;2023-02-03T15:24:52;14.00;65.20
40636;DHT22;26642;55.766;37.828;2023-02-03T15:27:29;14.00;65.10
40636;DHT22;26642;55.766;37.828;2023-02-03T15:29:56;14.00;65.00
40636;DHT22;26642;55.766;37.828;2023-02-03T15:34:54;14.10;65.10
40636;DHT22;26642;55.766;37.828;2023-02-03T15:47:54;14.00;64.90
40636;DHT22;26642;55.766;37.828;2023-02-03T15:50:31;14.10;64.90
40636;DHT22;26642;55.766;37.828;2023-02-03T15:53:05;14.00;64.70
40636;DHT22;26642;55.766;37.828;2023-02-03T15:55:42;14.00;64.70
40636;DHT22;26642;55.766;37.828;2023-02-03T15:58:21;14.10;64.80
40636;DHT22;26642;55.766;37.828;2023-02-03T16:00:57;14.00;64.60
40636;DHT22;26642;55.766;37.828;2023-02-03T16:03:31;14.00;64.40
40636;DHT22;26642;55.766;37.828;2023-02-03T16:06:24;14.00;64.50
40636;DHT22;26642;55.766;37.828;2023-02-03T16:08:53;14.10;64.60
40636;DHT22;26642;55.766;37.828;2023-02-03T16:11:28;14.00;64.70
40636;DHT22;26642;55.766;37.828;2023-02-03T16:13:57;14.10;64.70
40636;DHT22;26642;55.766;37.828;2023-02-03T16:19:13;14.00;64.40
40636;DHT22;26642;55.766;37.828;2023-02-03T16:21:54;14.00;64.40
40636;DHT22;26642;55.766;37.828;2023-02-03T16:24:41;14.00;64.20
40636;DHT22;26642;55.766;37.828;2023-02-03T16:33:09;14.00;64.00
40636;DHT22;26642;55.766;37.828;2023-02-03T16:35:54;14.00;64.00
40636;DHT22;26642;55.766;37.828;2023-02-03T16:38:44;14.00;64.10
40636;DHT22;26642;55.766;37.828;2023-02-03T16:41:30;14.00;64.30
40636;DHT22;26642;55.766;37.828;2023-02-03T16:44:18;14.00;64.40
40636;DHT22;26642;55.766;37.828;2023-02-03T16:47:07;14.00;64.60
40636;DHT22;26642;55.766;37.828;2023-02-03T16:49:58;14.00;64.80
40636;DHT22;26642;55.766;37.828;2023-02-03T16:52:42;14.00;65.00
40636;DHT22;26642;55.766;37.828;2023-02-03T16:55:09;14.00;65.10
40636;DHT22;26642;55.766;37.828;2023-02-03T16:57:35;14.00;65.10
40636;DHT22;26642;55.766;37.828;2023-02-03T17:00:02;14.00;65.20
40636;DHT22;26642;55.766;37.828;2023-02-03T17:02:30;14.00;65.30
40636;DHT22;26642;55.766;37.828;2023-02-03T17:04:56;14.00;65.30
40636;DHT22;26642;55.766;37.828;2023-02-03T17:07:23;14.00;65.40
40636;DHT22;26642;55.766;37.828;2023-02-03T17:09:49;14.00;65.40
40636;DHT22;26642;55.766;37.828;2023-02-03T17:12:15;14.00;65.30
40636;DHT22;26642;55.766;37.828;2023-02-03T17:14:41;14.00;65.40
40636;DHT22;26642;55.766;37.828;2023-02-03T17:17:07;14.00;65.90
40636;DHT22;26642;55.766;37.828;2023-02-03T17:19:33;14.10;65.50
40636;DHT22;26642;55.766;37.828;2023-02-03T17:21:59;14.00;65.30
40636;DHT22;26642;55.766;37.828;2023-02-03T17:24:25;14.00;65.30
40636;DHT22;26642;55.766;37.828;2023-02-03T17:26:51;14.00;65.20
40636;DHT22;26642;55.766;37.828;2023-02-03T17:29:19;14.00;65.20
40636;DHT22;26642;55.766;37.828;2023-02-03T17:31:45;14.00;65.30
40636;DHT22;26642;55.766;37.828;2023-02-03T17:34:11;14.10;65.30
40636;DHT22;26642;55.766;37.828;2023-02-03T17:36:37;14.00;65.30
40636;DHT22;26642;55.766;37.828;2023-02-03T17:39:03;14.10;65.70
40636;DHT22;26642;55.766;37.828;2023-02-03T17:41:29;14.00;65.10
40636;DHT22;26642;55.766;37.828;2023-02-03T17:43:55;14.00;65.10
40636;DHT22;26642;55.766;37.828;2023-02-03T17:46:23;14.10;65.80
40636;DHT22;26642;55.766;37.828;2023-02-03T17:48:50;14.10;65.30
40636;DHT22;26642;55.766;37.828;2023-02-03T17:51:19;14.10;65.30
40636;DHT22;26642;55.766;37.828;2023-02-03T17:53:48;14.10;65.50
40636;DHT22;26642;55.766;37.828;2023-02-03T17:56:19;14.10;65.40
40636;DHT22;26642;55.766;37.828;2023-02-03T17:58:46;14.10;65.50
40636;DHT22;26642;55.766;37.828;2023-02-03T18:01:14;14.10;65.60
40636;DHT22;26642;55.766;37.828;2023-02-03T18:03:46;14.10;65.60
40636;DHT22;26642;55.766;37.828;2023-02-03T18:06:14;14.10;65.60
40636;DHT22;26642;55.766;37.828;2023-02-03T18:08:41;14.10;65.70
40636;DHT22;26642;55.766;37.828;2023-02-03T18:11:08;14.10;65.80
40636;DHT22;26642;55.766;37.828;2023-02-03T18:13:36;14.10;66.20
40636;DHT22;26642;55.766;37.828;2023-02-03T18:16:06;14.10;66.40
40636;DHT22;26642;55.766;37.828;2023-02-03T18:18:34;14.10;66.90
40636;DHT22;26642;55.766;37.828;2023-02-03T18:21:04;14.10;67.10
40636;DHT22;26642;55.766;37.828;2023-02-03T18:23:30;14.10;67.60
40636;DHT22;26642;55.766;37.828;2023-02-03T18:25:56;14.10;67.90
40636;DHT22;26642;55.766;37.828;2023-02-03T18:28:23;14.10;68.20